Latest Coastal Weather Observations for Portland Airport

IDS60701

Issued at 4:05 am CST Friday 18 April 2014 (issued every 10 minutes, with the page automatically refreshed every 10 minutes)

About coastal observations | Map of coastal stations | Coastal observations for SA | Marine services | Other Formats
Station Details ID: 090171 Name: CASHMORE AIRPORT Lat: -38.31 Lon: 141.47 Height: 80.9 m
Data from the previous 72 hours. | See also: Recent months at Portland Airport
Date/Time
CST
Temp

°C
Wind Pressure Rain
since 9am
mm
Weather Cloud Vis
km
Sea
Height
m
Swell
Dir
 
Speed
knots
Gust
knots
hPa Trend Height
m
Period
s
Dir
18/04:00am 13.9 NNW 10 14 1014.2 - 0.6 - - 10 - - - -
18/03:30am 13.8 NNW 10 15 1014.0 - 0.6 - - 10 - - - -
18/03:00am 13.8 NNW 8 11 1014.5 - 0.6 - - 10 - - - -
18/02:33am 14.0 NW 11 17 1014.7 - 0.6 - - 9 - - - -
18/02:30am 14.0 NW 11 15 1014.7 - 0.6 - - 10 - - - -
18/02:17am 14.1 WNW 11 16 1015.0 - 0.4 - - 6 - - - -
18/02:00am 14.4 NW 13 19 1015.1 - 0.4 - - 10 - - - -
18/01:30am 13.8 NNW 9 12 1015.1 - 0.2 - - 10 - - - -
18/01:00am 12.6 N 6 9 1015.4 - 0.2 - - 10 - - - -
18/12:30am 12.1 N 7 9 1015.5 - 0.2 - - 10 - - - -
18/12:00am 11.1 N 8 10 1015.8 - 0.2 - - 10 - - - -
 
Date/Time
CST
Temp

°C
Wind Pressure Rain
since 9am
mm
Weather Cloud Vis
km
Sea
Height
m
Swell
Dir
 
Speed
knots
Gust
knots
hPa Trend Height
m
Period
s
Dir
17/11:30pm 10.7 N 7 10 1016.2 - 0.2 - - 10 - - - -
17/11:00pm 10.1 N 7 9 1016.8 - 0.2 - - 10 - - - -
17/10:30pm 10.2 N 6 8 1017.1 - 0.0 - - 10 - - - -
17/10:00pm 10.2 N 7 10 1017.6 - 0.0 - - 10 - - - -
17/09:30pm 10.0 N 7 9 1018.0 - 0.0 - - 10 - - - -
17/09:00pm 10.3 N 6 7 1018.0 - 0.0 - - 10 - - - -
17/08:30pm 11.3 NNW 6 8 1018.1 - 0.0 - - 10 - - - -
17/08:00pm 11.4 NW 7 8 1018.1 - 0.0 - - 8 - - - -
17/07:30pm 11.4 WNW 8 9 1018.1 - 0.0 - - 7 - - - -
17/07:17pm 11.4 WNW 8 10 1018.2 - 0.0 - - 7 - - - -
17/07:00pm 11.4 WNW 7 8 1018.3 - 0.0 - - 6 - - - -
17/06:35pm 12.1 WNW 7 8 1018.2 - 0.0 - - 6 - - - -
17/06:30pm 12.1 WNW 6 8 1018.2 - 0.0 - - 8 - - - -
17/06:00pm 12.2 WNW 6 7 1018.3 - 0.0 - - 9 - - - -
17/05:30pm 13.6 WNW 6 8 1018.4 - 0.0 - - 10 - - - -
17/05:00pm 14.5 W 6 7 1018.4 - 0.0 - - 10 - - - -
17/04:30pm 15.5 W 9 12 1018.5 - 0.0 - - 10 - - - -
17/04:00pm 16.6 W 10 14 1018.5 - 0.0 - - 10 - - - -
17/03:30pm 16.4 WSW 13 17 1018.8 - 0.0 - - 10 - - - -
17/03:00pm 17.0 W 13 17 1018.8 - 0.0 - - - - - - -
17/02:30pm 17.2 W 14 17 1018.8 - 0.0 - - - - - - -
17/02:00pm 17.3 W 12 16 1019.0 - 0.0 - - 10 - - - -
17/01:30pm 16.6 W 10 14 1019.2 - 0.0 - - 10 - - - -
17/01:00pm 17.7 W 11 15 1019.1 - 0.0 - - 10 - - - -
17/12:30pm 17.3 W 12 15 1019.3 - 0.0 - - 10 - - - -
17/12:00pm 18.4 WNW 12 15 1019.6 - 0.0 - - 10 - - - -
17/11:30am 18.2 NNW 9 12 1019.8 - 0.0 - - 10 - - - -
17/11:00am 17.9 NNW 8 11 1020.1 - 0.0 - - 10 - - - -
17/10:30am 16.7 NNW 8 11 1020.2 - 0.0 - - 10 - - - -
17/10:00am 15.5 NNW 8 12 1020.4 - 0.0 - - 10 - - - -
17/09:30am 15.4 NNW 8 10 1020.5 - 0.0 - - 10 - - - -
17/09:00am 14.8 N 7 10 1020.4 - 0.0 - - 10 - - - -
17/08:30am 12.8 N 6 8 1020.4 - 0.4 - - 10 - - - -
17/08:00am 11.1 N 5 7 1020.3 - 0.4 - - 10 - - - -
17/07:30am 10.5 N 5 7 1020.1 - 0.4 - - 10 - - - -
17/07:00am 10.3 N 6 8 1019.8 - 0.4 - - 10 - - - -
17/06:30am 10.2 N 4 6 1019.6 - 0.4 - - 7 - - - -
17/06:00am 9.8 N 7 9 1019.5 - 0.4 - - 10 - - - -
17/05:30am 9.8 N 7 9 1019.5 - 0.4 - - 10 - - - -
17/05:00am 9.7 N 7 9 1019.4 - 0.4 - - 10 - - - -
17/04:30am 9.4 N 6 8 1019.2 - 0.4 - - 10 - - - -
17/04:00am 9.3 N 6 7 1019.1 - 0.4 - - 10 - - - -
17/03:30am 8.6 N 6 7 1019.0 - 0.4 - - 10 - - - -
17/03:00am 8.5 N 6 7 1019.0 - 0.4 - - 10 - - - -
17/02:30am 8.6 N 6 7 1019.0 - 0.4 - - 10 - - - -
17/02:00am 8.9 N 6 8 1019.1 - 0.2 - - 10 - - - -
17/01:30am 9.1 N 7 8 1019.4 - 0.2 - - 10 - - - -
17/01:00am 9.3 N 6 8 1019.3 - 0.2 - - 10 - - - -
17/12:30am 9.2 N 6 8 1019.3 - 0.2 - - 10 - - - -
17/12:00am 9.8 N 6 8 1019.2 - 0.2 - - 10 - - - -
 
Date/Time
CST
Temp

°C
Wind Pressure Rain
since 9am
mm
Weather Cloud Vis
km
Sea
Height
m
Swell
Dir
 
Speed
knots
Gust
knots
hPa Trend Height
m
Period
s
Dir
16/11:30pm 9.7 N 6 8 1019.4 - 0.2 - Mostly clear 4 - - - -
16/11:00pm 9.6 N 5 7 1019.6 - 0.2 - - 4 - - - -
16/10:37pm 9.5 NNE 2 5 1019.7 - 0.2 - Partly cloudy 4 - - - -
16/10:30pm 9.8 NNE 1 4 1019.7 - 0.2 - Partly cloudy 10 - - - -
16/10:00pm 10.0 N 4 5 1019.7 - 0.2 - Partly cloudy 10 - - - -
16/09:30pm 10.5 N 4 5 1019.9 - 0.2 - - 10 - - - -
16/09:00pm 10.6 N 2 5 1019.8 - 0.2 - Partly cloudy 10 - - - -
16/08:30pm 10.9 CALM 0 0 1019.7 - 0.2 - Mostly cloudy 10 - - - -
16/08:00pm 10.8 CALM 0 0 1019.7 - 0.2 - Partly cloudy 10 - - - -
16/07:30pm 11.6 NW 3 4 1019.6 - 0.2 - Partly cloudy 10 - - - -
16/07:00pm 12.3 NW 4 5 1019.4 - 0.2 - Partly cloudy 10 - - - -
16/06:30pm 12.9 NW 4 6 1019.3 - 0.2 - Partly cloudy 10 - - - -
16/06:00pm 13.3 NW 4 6 1019.2 - 0.2 - Partly cloudy 10 - - - -
16/05:30pm 14.0 WNW 5 8 1019.3 - 0.2 - Mostly cloudy 10 - - - -
16/05:00pm 14.4 W 7 9 1019.3 - 0.2 - Cloudy 10 - - - -
16/04:30pm 14.7 WNW 6 8 1019.1 - 0.0 - Partly cloudy 10 - - - -
16/04:00pm 15.1 W 7 10 1019.2 - 0.0 - - 10 - - - -
16/03:30pm 15.9 W 7 9 1019.3 - 0.0 - - 10 - - - -
16/03:00pm 16.2 WSW 9 12 1019.3 - 0.0 - - 10 - - - -
16/02:30pm 16.7 WSW 9 12 1019.1 - 0.0 - - 10 - - - -
16/02:00pm 16.3 W 11 15 1019.2 - 0.0 - - 10 - - - -
16/01:30pm 17.1 W 10 13 1019.0 - 0.0 - - 10 - - - -
16/01:00pm 18.0 W 11 14 1018.9 - 0.0 - Partly cloudy 10 - - - -
16/12:30pm 17.2 W 8 11 1019.0 - 0.0 - Partly cloudy - - - - -
16/12:00pm 16.8 W 10 14 1019.6 - 0.0 - Partly cloudy - - - - -
16/11:30am 17.1 WNW 7 12 1019.8 - 0.0 - Cloudy 10 - - - -
16/11:00am 17.5 N 6 8 1020.0 - 0.0 - Cloudy 10 - - - -
16/10:30am 16.2 N 5 7 1020.0 - 0.0 - Cloudy 10 - - - -
16/10:00am 14.8 N 6 8 1020.1 - 0.0 - Cloudy 10 - - - -
16/09:30am 13.3 N 5 8 1020.5 - 0.0 - Cloudy 10 - - - -
16/09:00am 12.5 NNE 5 7 1020.7 - 0.0 - Cloudy 10 - - - -
16/08:30am 11.6 NNE 6 7 1020.7 - 1.0 - Mostly clear 10 - - - -
16/08:00am 10.9 NNE 5 7 1020.8 - 1.0 - Partly cloudy 10 - - - -
16/07:30am 9.7 NNE 4 4 1020.7 - 1.0 - - 10 - - - -
16/07:00am 9.1 N 5 5 1020.7 - 0.8 - - 10 - - - -
16/06:30am 9.4 N 5 5 1020.5 - 0.8 - - 10 - - - -
16/06:00am 9.5 N 5 6 1020.4 - 0.8 - - 10 - - - -
16/05:30am 9.5 N 5 6 1020.5 - 0.8 - - 10 - - - -
16/05:00am 9.6 N 5 6 1020.6 - 0.8 - - 10 - - - -
16/04:30am 9.8 N 5 6 1020.5 - 0.8 - - 10 - - - -
16/04:00am 9.9 NNE 4 6 1020.5 - 0.8 - - 10 - - - -
16/03:30am 10.1 NNE 4 5 1020.9 - 0.8 - Partly cloudy 10 - - - -
16/03:00am 10.8 NE 3 5 1021.0 - 0.8 - Cloudy 10 - - - -
16/02:30am 11.0 NE 4 5 1021.1 - 0.8 - Mostly cloudy 10 - - - -
16/02:00am 11.3 NE 5 7 1021.6 - 0.8 - Cloudy 10 - - - -
16/01:30am 11.1 NE 5 6 1022.3 - 0.8 - Cloudy 10 - - - -
16/01:00am 10.8 E 5 6 1022.4 - 0.8 - Cloudy 10 - - - -
16/12:30am 10.4 E 4 5 1022.4 - 0.8 - Cloudy 10 - - - -
16/12:00am 9.2 CALM 0 4 1022.5 - 0.8 - Cloudy 10 - - - -
 
Date/Time
CST
Temp

°C
Wind Pressure Rain
since 9am
mm
Weather Cloud Vis
km
Sea
Height
m
Swell
Dir
 
Speed
knots
Gust
knots
hPa Trend Height
m
Period
s
Dir
15/11:30pm 9.0 CALM 0 3 1022.6 - 0.8 - Mostly cloudy 10 - - - -
15/11:00pm 9.0 E 4 4 1022.8 - 0.8 - Partly cloudy 10 - - - -
15/10:30pm 9.0 ESE 3 4 1023.0 - 0.8 - - 10 - - - -
15/10:00pm 9.0 CALM 0 0 1023.5 - 0.8 - Partly cloudy 10 - - - -
15/09:30pm 8.9 CALM 0 0 1023.7 - 0.8 - - 10 - - - -
15/09:00pm 9.2 ESE 1 3 1023.6 - 0.8 - - 10 - - - -
15/08:30pm 11.0 ESE 4 6 1023.4 - 0.8 - - 10 - - - -
15/08:00pm 11.3 ESE 5 6 1023.4 - 0.8 - - 10 - - - -
15/07:30pm 11.4 ESE 5 7 1023.5 - 0.8 - - 10 - - - -
15/07:00pm 12.6 SE 6 7 1023.8 - 0.8 - Partly cloudy 10 - - - -
15/06:30pm 12.5 SE 5 5 1023.8 - 0.8 - Partly cloudy 10 - - - -
15/06:00pm 13.1 SE 6 7 1023.7 - 0.8 - - 10 - - - -
15/05:30pm 13.9 SE 8 11 1023.2 - 0.8 - - 10 - - - -
15/05:00pm 14.8 SE 9 12 1023.1 - 0.8 - Partly cloudy 10 - - - -
15/04:30pm 15.5 SE 9 13 1023.2 - 0.8 - Partly cloudy 10 - - - -
15/04:00pm 16.2 SE 10 15 1023.0 - 0.8 - Partly cloudy 10 - - - -
15/03:30pm 16.3 SE 10 13 1023.1 - 0.8 - Partly cloudy 10 - - - -
15/03:00pm 16.3 SE 10 15 1023.2 - 0.8 - Partly cloudy 10 - - - -
15/02:30pm 16.4 SE 10 15 1023.2 - 0.8 - Cloudy 10 - - - -
15/02:00pm 16.2 SE 9 13 1023.3 - 0.8 - Partly cloudy 10 - - - -
15/01:47pm 15.7 SE 7 12 1023.2 - 0.8 - Partly cloudy 10 - - - -
15/01:30pm 15.4 ESE 8 11 1023.4 - 0.8 - Partly cloudy 4 - - - -
15/01:27pm 15.6 ESE 8 13 1023.4 - 0.8 - Partly cloudy 5 - - - -
15/01:00pm 15.4 SE 8 12 1023.7 - 0.8 - Partly cloudy 10 - - - -
15/12:45pm 15.2 ESE 8 11 1023.8 - 0.8 - Partly cloudy 10 - - - -
15/12:30pm 15.3 ESE 6 9 1024.0 - 0.8 - Partly cloudy 10 - - - -
15/12:00pm 15.3 E 5 8 1024.6 - 0.8 - Partly cloudy 10 - - - -
15/11:35am 15.2 E 6 10 1024.8 - 0.8 - Partly cloudy 10 - - - -
15/11:30am 15.5 E 6 10 1024.9 - 0.8 - Cloudy 10 - - - -
15/11:17am 14.8 E 7 12 1024.9 - 0.6 - Partly cloudy 4 - - - -
15/11:09am 15.3 ESE 8 11 1025.0 - 0.0 - Partly cloudy 6 - - - -
15/11:00am 15.7 SE 7 11 1025.1 - 0.0 - Partly cloudy 10 - - - -
15/10:30am 16.7 E 9 13 1025.2 - 0.0 - Partly cloudy 10 - - - -
15/10:00am 15.7 SE 8 11 1025.4 - 0.0 - Partly cloudy 10 - - - -
15/09:30am 14.9 ESE 8 12 1025.4 - 0.0 - Partly cloudy 10 - - - -
15/09:00am 14.3 ESE 8 12 1025.4 - 0.0 - Partly cloudy 10 - - - -
15/08:30am 14.8 ESE 7 11 1025.4 - 0.2 - Partly cloudy 10 - - - -
15/08:00am 14.1 ESE 6 11 1025.2 - 0.2 - Cloudy 10 - - - -
15/07:30am 13.4 ESE 7 9 1025.0 - 0.2 - - 10 - - - -
15/07:00am 13.4 ESE 7 9 1024.8 - 0.2 - Partly cloudy 10 - - - -
15/06:55am 13.3 ESE 7 9 1024.8 - 0.2 - Partly cloudy 10 - - - -
15/06:33am 13.2 SE 6 8 1024.6 - 0.2 - Partly cloudy 10 - - - -
15/06:30am 13.1 SE 5 8 1024.6 - 0.2 - Partly cloudy 10 - - - -
15/06:00am 12.2 SE 5 6 1024.6 - 0.2 - Partly cloudy 10 - - - -
15/05:30am 12.2 SSE 4 6 1024.5 - 0.2 - Partly cloudy 10 - - - -
15/05:09am 12.5 S 4 5 1024.5 - 0.2 - Partly cloudy 10 - - - -
15/05:00am 12.3 S 4 5 1024.5 - 0.2 - Partly cloudy 10 - - - -
15/04:36am 12.3 S 3 4 1024.4 - 0.2 - Partly cloudy 10 - - - -
15/04:30am 12.4 S 3 4 1024.3 - 0.2 - Partly cloudy 10 - - - -
15/04:00am 11.1 CALM 0 0 1024.2 - 0.2 - Cloudy 10 - - - -

Other Formats:

Comma delimited format used in spreadsheet applications
http://www.bom.gov.au/fwo/IDS60701/IDS60701.94828.axf

JavaScript Object Notation format (JSON) in row-major order
http://www.bom.gov.au/fwo/IDS60701/IDS60701.94828.json